sensor_id;sensor_type;location;lat;lon;timestamp;temperature;humidity
15609;DHT22;28705;45.642;13.758;2022-08-19T00:02:06;28.60;58.90
15609;DHT22;28705;45.642;13.758;2022-08-19T00:04:35;28.60;58.90
15609;DHT22;28705;45.642;13.758;2022-08-19T00:07:04;28.60;58.80
15609;DHT22;28705;45.642;13.758;2022-08-19T00:09:33;28.60;58.50
15609;DHT22;28705;45.642;13.758;2022-08-19T00:12:00;28.60;58.30
15609;DHT22;28705;45.642;13.758;2022-08-19T00:14:28;28.60;58.20
15609;DHT22;28705;45.642;13.758;2022-08-19T00:16:57;28.60;58.10
15609;DHT22;28705;45.642;13.758;2022-08-19T00:19:30;28.60;57.90
15609;DHT22;28705;45.642;13.758;2022-08-19T00:21:59;28.60;57.40
15609;DHT22;28705;45.642;13.758;2022-08-19T00:24:28;28.60;57.50
15609;DHT22;28705;45.642;13.758;2022-08-19T00:26:57;28.60;57.50
15609;DHT22;28705;45.642;13.758;2022-08-19T00:29:30;28.60;57.60
15609;DHT22;28705;45.642;13.758;2022-08-19T00:31:57;28.60;57.70
15609;DHT22;28705;45.642;13.758;2022-08-19T00:34:28;28.60;57.60
15609;DHT22;28705;45.642;13.758;2022-08-19T00:36:59;28.60;57.50
15609;DHT22;28705;45.642;13.758;2022-08-19T00:39:26;28.60;57.40
15609;DHT22;28705;45.642;13.758;2022-08-19T00:41:53;28.60;57.20
15609;DHT22;28705;45.642;13.758;2022-08-19T00:44:22;28.50;57.00
15609;DHT22;28705;45.642;13.758;2022-08-19T00:46:54;28.60;57.40
15609;DHT22;28705;45.642;13.758;2022-08-19T00:49:29;28.50;56.70
15609;DHT22;28705;45.642;13.758;2022-08-19T00:52:06;28.50;56.70
15609;DHT22;28705;45.642;13.758;2022-08-19T00:54:36;28.60;56.90
15609;DHT22;28705;45.642;13.758;2022-08-19T00:57:06;28.50;56.10
15609;DHT22;28705;45.642;13.758;2022-08-19T00:59:35;28.50;56.40
15609;DHT22;28705;45.642;13.758;2022-08-19T01:02:04;28.50;57.30
15609;DHT22;28705;45.642;13.758;2022-08-19T01:04:31;28.50;58.00
15609;DHT22;28705;45.642;13.758;2022-08-19T01:06:59;28.50;58.40
15609;DHT22;28705;45.642;13.758;2022-08-19T01:09:28;28.50;58.60
15609;DHT22;28705;45.642;13.758;2022-08-19T01:11:56;28.50;59.00
15609;DHT22;28705;45.642;13.758;2022-08-19T01:14:24;28.60;59.40
15609;DHT22;28705;45.642;13.758;2022-08-19T01:16:52;28.60;59.60
15609;DHT22;28705;45.642;13.758;2022-08-19T01:19:26;28.50;59.80
15609;DHT22;28705;45.642;13.758;2022-08-19T01:21:57;28.60;60.30
15609;DHT22;28705;45.642;13.758;2022-08-19T01:24:27;28.60;60.50
15609;DHT22;28705;45.642;13.758;2022-08-19T01:26:56;28.60;60.80
15609;DHT22;28705;45.642;13.758;2022-08-19T01:29:24;28.50;61.60
15609;DHT22;28705;45.642;13.758;2022-08-19T01:31:51;28.40;62.90
15609;DHT22;28705;45.642;13.758;2022-08-19T01:34:19;28.30;64.50
15609;DHT22;28705;45.642;13.758;2022-08-19T01:36:47;28.10;65.70
15609;DHT22;28705;45.642;13.758;2022-08-19T01:39:16;28.00;66.10
15609;DHT22;28705;45.642;13.758;2022-08-19T01:41:46;27.90;66.10
15609;DHT22;28705;45.642;13.758;2022-08-19T01:44:14;27.90;66.20
15609;DHT22;28705;45.642;13.758;2022-08-19T01:46:42;28.00;66.10
15609;DHT22;28705;45.642;13.758;2022-08-19T01:49:09;28.00;65.80
15609;DHT22;28705;45.642;13.758;2022-08-19T01:51:37;28.10;65.10
15609;DHT22;28705;45.642;13.758;2022-08-19T01:54:04;28.10;64.90
15609;DHT22;28705;45.642;13.758;2022-08-19T01:56:31;28.10;64.90
15609;DHT22;28705;45.642;13.758;2022-08-19T01:59:02;28.10;64.70
15609;DHT22;28705;45.642;13.758;2022-08-19T02:01:30;28.20;64.40
15609;DHT22;28705;45.642;13.758;2022-08-19T02:03:58;28.20;64.10
15609;DHT22;28705;45.642;13.758;2022-08-19T02:06:26;28.30;63.70
15609;DHT22;28705;45.642;13.758;2022-08-19T02:08:54;28.30;63.90
15609;DHT22;28705;45.642;13.758;2022-08-19T02:11:23;28.30;64.20
15609;DHT22;28705;45.642;13.758;2022-08-19T02:13:52;28.30;64.00
15609;DHT22;28705;45.642;13.758;2022-08-19T02:16:21;28.20;63.60
15609;DHT22;28705;45.642;13.758;2022-08-19T02:18:49;28.20;63.40
15609;DHT22;28705;45.642;13.758;2022-08-19T02:21:17;28.10;63.70
15609;DHT22;28705;45.642;13.758;2022-08-19T02:23:44;28.00;64.10
15609;DHT22;28705;45.642;13.758;2022-08-19T02:26:12;28.00;64.80
15609;DHT22;28705;45.642;13.758;2022-08-19T02:28:39;28.00;64.00
15609;DHT22;28705;45.642;13.758;2022-08-19T02:31:09;28.10;64.10
15609;DHT22;28705;45.642;13.758;2022-08-19T02:33:38;28.10;64.00
15609;DHT22;28705;45.642;13.758;2022-08-19T02:36:06;28.10;64.00
15609;DHT22;28705;45.642;13.758;2022-08-19T02:38:34;28.10;64.00
15609;DHT22;28705;45.642;13.758;2022-08-19T02:41:10;28.10;63.90
15609;DHT22;28705;45.642;13.758;2022-08-19T02:43:38;28.10;63.80
15609;DHT22;28705;45.642;13.758;2022-08-19T02:46:12;28.20;63.50
15609;DHT22;28705;45.642;13.758;2022-08-19T02:48:41;28.20;63.50
15609;DHT22;28705;45.642;13.758;2022-08-19T02:51:09;28.10;63.30
15609;DHT22;28705;45.642;13.758;2022-08-19T02:53:42;28.10;63.20
15609;DHT22;28705;45.642;13.758;2022-08-19T02:56:09;28.10;62.90
15609;DHT22;28705;45.642;13.758;2022-08-19T02:58:36;28.10;62.80
15609;DHT22;28705;45.642;13.758;2022-08-19T03:01:03;28.10;62.90
15609;DHT22;28705;45.642;13.758;2022-08-19T03:03:30;28.10;62.90
15609;DHT22;28705;45.642;13.758;2022-08-19T03:06:10;28.10;62.80
15609;DHT22;28705;45.642;13.758;2022-08-19T03:08:39;28.10;62.80
15609;DHT22;28705;45.642;13.758;2022-08-19T03:11:06;28.10;62.60
15609;DHT22;28705;45.642;13.758;2022-08-19T03:13:33;28.10;62.50
15609;DHT22;28705;45.642;13.758;2022-08-19T03:16:04;28.10;62.50
15609;DHT22;28705;45.642;13.758;2022-08-19T03:18:31;28.10;62.50
15609;DHT22;28705;45.642;13.758;2022-08-19T03:20:58;28.10;62.20
15609;DHT22;28705;45.642;13.758;2022-08-19T03:23:27;28.10;62.20
15609;DHT22;28705;45.642;13.758;2022-08-19T03:25:54;28.10;61.90
15609;DHT22;28705;45.642;13.758;2022-08-19T03:28:21;28.10;61.80
15609;DHT22;28705;45.642;13.758;2022-08-19T03:30:57;28.10;61.80
15609;DHT22;28705;45.642;13.758;2022-08-19T03:33:26;28.10;61.70
15609;DHT22;28705;45.642;13.758;2022-08-19T03:36:01;28.00;61.70
15609;DHT22;28705;45.642;13.758;2022-08-19T03:38:29;28.00;61.60
15609;DHT22;28705;45.642;13.758;2022-08-19T03:40:57;28.00;61.60
15609;DHT22;28705;45.642;13.758;2022-08-19T03:43:25;28.00;61.60
15609;DHT22;28705;45.642;13.758;2022-08-19T03:46:00;28.00;61.60
15609;DHT22;28705;45.642;13.758;2022-08-19T03:48:28;28.10;61.50
15609;DHT22;28705;45.642;13.758;2022-08-19T03:50:56;28.10;61.40
15609;DHT22;28705;45.642;13.758;2022-08-19T03:53:25;28.10;61.30
15609;DHT22;28705;45.642;13.758;2022-08-19T03:55:54;28.10;61.10
15609;DHT22;28705;45.642;13.758;2022-08-19T03:58:22;28.10;61.00
15609;DHT22;28705;45.642;13.758;2022-08-19T04:00:49;28.10;61.00
15609;DHT22;28705;45.642;13.758;2022-08-19T04:03:16;28.10;61.00
15609;DHT22;28705;45.642;13.758;2022-08-19T04:05:45;28.10;60.60
15609;DHT22;28705;45.642;13.758;2022-08-19T04:08:13;28.10;60.20
15609;DHT22;28705;45.642;13.758;2022-08-19T04:10:44;28.10;59.90
15609;DHT22;28705;45.642;13.758;2022-08-19T04:13:13;28.00;59.80
15609;DHT22;28705;45.642;13.758;2022-08-19T04:15:41;27.90;60.40
15609;DHT22;28705;45.642;13.758;2022-08-19T04:18:09;27.80;61.00
15609;DHT22;28705;45.642;13.758;2022-08-19T04:20:41;27.70;61.30
15609;DHT22;28705;45.642;13.758;2022-08-19T04:23:08;27.60;61.80
15609;DHT22;28705;45.642;13.758;2022-08-19T04:25:37;27.60;62.10
15609;DHT22;28705;45.642;13.758;2022-08-19T04:28:05;27.60;62.30
15609;DHT22;28705;45.642;13.758;2022-08-19T04:30:39;27.60;62.30
15609;DHT22;28705;45.642;13.758;2022-08-19T04:33:06;27.60;62.20
15609;DHT22;28705;45.642;13.758;2022-08-19T04:35:38;27.70;62.30
15609;DHT22;28705;45.642;13.758;2022-08-19T04:38:06;27.70;62.20
15609;DHT22;28705;45.642;13.758;2022-08-19T04:40:34;27.70;62.20
15609;DHT22;28705;45.642;13.758;2022-08-19T04:43:27;27.70;62.20
15609;DHT22;28705;45.642;13.758;2022-08-19T04:45:56;27.70;62.10
15609;DHT22;28705;45.642;13.758;2022-08-19T04:48:23;27.80;62.20
15609;DHT22;28705;45.642;13.758;2022-08-19T04:50:52;27.80;62.20
15609;DHT22;28705;45.642;13.758;2022-08-19T04:53:23;27.80;61.20
15609;DHT22;28705;45.642;13.758;2022-08-19T04:55:54;27.80;60.80
15609;DHT22;28705;45.642;13.758;2022-08-19T04:58:21;27.70;60.20
15609;DHT22;28705;45.642;13.758;2022-08-19T05:00:48;27.70;59.20
15609;DHT22;28705;45.642;13.758;2022-08-19T05:03:17;27.60;59.40
15609;DHT22;28705;45.642;13.758;2022-08-19T05:05:45;27.50;59.20
15609;DHT22;28705;45.642;13.758;2022-08-19T05:08:17;27.50;59.50
15609;DHT22;28705;45.642;13.758;2022-08-19T05:10:46;27.40;59.50
15609;DHT22;28705;45.642;13.758;2022-08-19T05:13:14;27.40;59.50
15609;DHT22;28705;45.642;13.758;2022-08-19T05:15:41;27.30;59.10
15609;DHT22;28705;45.642;13.758;2022-08-19T05:18:08;27.30;59.40
15609;DHT22;28705;45.642;13.758;2022-08-19T05:20:55;27.30;59.30
15609;DHT22;28705;45.642;13.758;2022-08-19T05:23:39;27.30;58.60
15609;DHT22;28705;45.642;13.758;2022-08-19T05:26:06;27.20;58.40
15609;DHT22;28705;45.642;13.758;2022-08-19T05:28:34;27.20;58.40
15609;DHT22;28705;45.642;13.758;2022-08-19T05:31:01;27.20;58.40
15609;DHT22;28705;45.642;13.758;2022-08-19T05:33:28;27.20;58.60
15609;DHT22;28705;45.642;13.758;2022-08-19T05:35:58;27.20;58.40
15609;DHT22;28705;45.642;13.758;2022-08-19T05:38:25;27.20;58.20
15609;DHT22;28705;45.642;13.758;2022-08-19T05:40:54;27.20;58.10
15609;DHT22;28705;45.642;13.758;2022-08-19T05:43:21;27.20;58.00
15609;DHT22;28705;45.642;13.758;2022-08-19T05:45:48;27.30;57.80
15609;DHT22;28705;45.642;13.758;2022-08-19T05:48:16;27.30;57.50
15609;DHT22;28705;45.642;13.758;2022-08-19T05:50:46;27.30;57.30
15609;DHT22;28705;45.642;13.758;2022-08-19T05:53:17;27.40;57.10
15609;DHT22;28705;45.642;13.758;2022-08-19T05:55:44;27.40;56.80
15609;DHT22;28705;45.642;13.758;2022-08-19T05:58:11;27.40;56.40
15609;DHT22;28705;45.642;13.758;2022-08-19T06:00:38;27.50;56.10
15609;DHT22;28705;45.642;13.758;2022-08-19T06:03:05;27.40;55.80
15609;DHT22;28705;45.642;13.758;2022-08-19T06:05:32;27.40;55.60
15609;DHT22;28705;45.642;13.758;2022-08-19T06:07:59;27.40;55.50
15609;DHT22;28705;45.642;13.758;2022-08-19T06:10:28;27.40;55.50
15609;DHT22;28705;45.642;13.758;2022-08-19T06:12:55;27.30;55.50
15609;DHT22;28705;45.642;13.758;2022-08-19T06:15:22;27.30;55.40
15609;DHT22;28705;45.642;13.758;2022-08-19T06:17:51;27.30;55.70
15609;DHT22;28705;45.642;13.758;2022-08-19T06:20:18;27.30;55.80
15609;DHT22;28705;45.642;13.758;2022-08-19T06:22:48;27.30;55.90
15609;DHT22;28705;45.642;13.758;2022-08-19T06:25:16;27.30;55.30
15609;DHT22;28705;45.642;13.758;2022-08-19T06:27:45;27.30;55.30
15609;DHT22;28705;45.642;13.758;2022-08-19T06:30:12;27.30;55.80
15609;DHT22;28705;45.642;13.758;2022-08-19T06:32:39;27.20;56.00
15609;DHT22;28705;45.642;13.758;2022-08-19T06:35:07;27.20;56.20
15609;DHT22;28705;45.642;13.758;2022-08-19T06:37:34;27.30;56.10
15609;DHT22;28705;45.642;13.758;2022-08-19T06:40:03;27.30;56.00
15609;DHT22;28705;45.642;13.758;2022-08-19T06:42:31;27.30;55.70
15609;DHT22;28705;45.642;13.758;2022-08-19T06:44:59;27.30;55.60
15609;DHT22;28705;45.642;13.758;2022-08-19T06:47:28;27.30;55.00
15609;DHT22;28705;45.642;13.758;2022-08-19T06:49:56;27.30;54.70
15609;DHT22;28705;45.642;13.758;2022-08-19T06:52:27;27.30;54.30
15609;DHT22;28705;45.642;13.758;2022-08-19T06:54:54;27.20;54.60
15609;DHT22;28705;45.642;13.758;2022-08-19T06:57:23;27.20;54.40
15609;DHT22;28705;45.642;13.758;2022-08-19T06:59:51;27.10;54.20
15609;DHT22;28705;45.642;13.758;2022-08-19T07:02:19;27.10;54.10
15609;DHT22;28705;45.642;13.758;2022-08-19T07:04:48;27.00;54.30
15609;DHT22;28705;45.642;13.758;2022-08-19T07:07:16;26.90;54.40
15609;DHT22;28705;45.642;13.758;2022-08-19T07:09:44;26.90;54.60
15609;DHT22;28705;45.642;13.758;2022-08-19T07:12:12;26.90;54.10
15609;DHT22;28705;45.642;13.758;2022-08-19T07:14:41;26.80;54.50
15609;DHT22;28705;45.642;13.758;2022-08-19T07:17:12;26.90;54.70
15609;DHT22;28705;45.642;13.758;2022-08-19T07:19:41;26.90;54.60
15609;DHT22;28705;45.642;13.758;2022-08-19T07:22:09;26.90;54.40
15609;DHT22;28705;45.642;13.758;2022-08-19T07:24:37;27.00;54.20
15609;DHT22;28705;45.642;13.758;2022-08-19T07:27:06;27.10;54.10
15609;DHT22;28705;45.642;13.758;2022-08-19T07:29:35;27.10;53.90
15609;DHT22;28705;45.642;13.758;2022-08-19T07:32:04;27.10;53.40
15609;DHT22;28705;45.642;13.758;2022-08-19T07:34:32;27.20;53.50
15609;DHT22;28705;45.642;13.758;2022-08-19T07:37:04;27.20;53.60
15609;DHT22;28705;45.642;13.758;2022-08-19T07:39:34;27.20;53.50
15609;DHT22;28705;45.642;13.758;2022-08-19T07:42:05;27.30;53.30
15609;DHT22;28705;45.642;13.758;2022-08-19T07:44:33;27.30;53.10
15609;DHT22;28705;45.642;13.758;2022-08-19T07:47:01;27.30;53.20
15609;DHT22;28705;45.642;13.758;2022-08-19T07:49:28;27.40;53.30
15609;DHT22;28705;45.642;13.758;2022-08-19T07:51:58;27.40;53.30
15609;DHT22;28705;45.642;13.758;2022-08-19T07:54:30;27.50;53.30
15609;DHT22;28705;45.642;13.758;2022-08-19T07:56:59;27.60;53.30
15609;DHT22;28705;45.642;13.758;2022-08-19T07:59:26;27.60;53.50
15609;DHT22;28705;45.642;13.758;2022-08-19T08:01:55;27.70;53.90
15609;DHT22;28705;45.642;13.758;2022-08-19T08:04:25;27.80;53.60
15609;DHT22;28705;45.642;13.758;2022-08-19T08:07:09;27.90;53.30
15609;DHT22;28705;45.642;13.758;2022-08-19T08:09:55;27.90;53.00
15609;DHT22;28705;45.642;13.758;2022-08-19T08:12:24;28.00;54.40
15609;DHT22;28705;45.642;13.758;2022-08-19T08:14:56;28.00;54.10
15609;DHT22;28705;45.642;13.758;2022-08-19T08:17:25;28.10;54.10
15609;DHT22;28705;45.642;13.758;2022-08-19T08:19:55;28.10;54.30
15609;DHT22;28705;45.642;13.758;2022-08-19T08:22:23;28.20;53.80
15609;DHT22;28705;45.642;13.758;2022-08-19T08:25:12;28.20;53.70
15609;DHT22;28705;45.642;13.758;2022-08-19T08:27:40;28.20;53.70
15609;DHT22;28705;45.642;13.758;2022-08-19T08:30:08;28.20;53.40
15609;DHT22;28705;45.642;13.758;2022-08-19T08:32:36;28.20;53.70
15609;DHT22;28705;45.642;13.758;2022-08-19T08:35:04;28.20;53.40
15609;DHT22;28705;45.642;13.758;2022-08-19T08:37:31;28.20;53.40
15609;DHT22;28705;45.642;13.758;2022-08-19T08:39:58;28.20;53.20
15609;DHT22;28705;45.642;13.758;2022-08-19T08:42:30;28.20;53.10
15609;DHT22;28705;45.642;13.758;2022-08-19T08:45:03;28.30;53.60
15609;DHT22;28705;45.642;13.758;2022-08-19T08:47:35;28.30;53.40
15609;DHT22;28705;45.642;13.758;2022-08-19T08:50:06;28.30;53.20
15609;DHT22;28705;45.642;13.758;2022-08-19T08:52:37;28.30;53.20
15609;DHT22;28705;45.642;13.758;2022-08-19T08:55:11;28.30;53.10
15609;DHT22;28705;45.642;13.758;2022-08-19T08:57:55;28.30;53.00
15609;DHT22;28705;45.642;13.758;2022-08-19T09:00:28;28.30;53.00
15609;DHT22;28705;45.642;13.758;2022-08-19T09:02:57;28.30;53.00
15609;DHT22;28705;45.642;13.758;2022-08-19T09:05:31;28.30;52.90
15609;DHT22;28705;45.642;13.758;2022-08-19T09:08:05;28.30;52.80
15609;DHT22;28705;45.642;13.758;2022-08-19T09:10:38;28.30;52.90
15609;DHT22;28705;45.642;13.758;2022-08-19T09:13:12;28.40;52.90
15609;DHT22;28705;45.642;13.758;2022-08-19T09:15:45;28.40;53.10
15609;DHT22;28705;45.642;13.758;2022-08-19T09:18:13;28.40;53.20
15609;DHT22;28705;45.642;13.758;2022-08-19T09:20:41;28.40;53.30
15609;DHT22;28705;45.642;13.758;2022-08-19T09:23:09;28.40;53.40
15609;DHT22;28705;45.642;13.758;2022-08-19T09:25:36;28.40;53.50
15609;DHT22;28705;45.642;13.758;2022-08-19T09:28:07;28.40;53.50
15609;DHT22;28705;45.642;13.758;2022-08-19T09:30:39;28.40;53.60
15609;DHT22;28705;45.642;13.758;2022-08-19T09:33:07;28.40;53.70
15609;DHT22;28705;45.642;13.758;2022-08-19T09:35:34;28.50;53.70
15609;DHT22;28705;45.642;13.758;2022-08-19T09:38:02;28.50;53.80
15609;DHT22;28705;45.642;13.758;2022-08-19T09:40:30;28.50;53.90
15609;DHT22;28705;45.642;13.758;2022-08-19T09:42:57;28.50;53.90
15609;DHT22;28705;45.642;13.758;2022-08-19T09:45:29;28.50;54.00
15609;DHT22;28705;45.642;13.758;2022-08-19T09:47:57;28.50;54.20
15609;DHT22;28705;45.642;13.758;2022-08-19T09:50:24;28.50;54.10
15609;DHT22;28705;45.642;13.758;2022-08-19T09:52:52;28.50;53.60
15609;DHT22;28705;45.642;13.758;2022-08-19T09:55:20;28.60;52.80
15609;DHT22;28705;45.642;13.758;2022-08-19T09:57:47;28.70;52.30
15609;DHT22;28705;45.642;13.758;2022-08-19T10:00:14;28.70;52.10
15609;DHT22;28705;45.642;13.758;2022-08-19T10:02:42;28.80;51.80
15609;DHT22;28705;45.642;13.758;2022-08-19T10:05:09;28.90;51.70
15609;DHT22;28705;45.642;13.758;2022-08-19T10:07:54;28.90;51.80
15609;DHT22;28705;45.642;13.758;2022-08-19T10:10:21;28.90;52.20
15609;DHT22;28705;45.642;13.758;2022-08-19T10:12:48;28.90;52.40
15609;DHT22;28705;45.642;13.758;2022-08-19T10:15:15;28.80;52.60
15609;DHT22;28705;45.642;13.758;2022-08-19T10:17:46;28.80;52.80
15609;DHT22;28705;45.642;13.758;2022-08-19T10:20:13;28.80;52.90
15609;DHT22;28705;45.642;13.758;2022-08-19T10:22:40;28.80;53.10
15609;DHT22;28705;45.642;13.758;2022-08-19T10:25:09;28.80;53.40
15609;DHT22;28705;45.642;13.758;2022-08-19T10:27:36;28.80;53.90
15609;DHT22;28705;45.642;13.758;2022-08-19T10:30:04;28.80;54.70
15609;DHT22;28705;45.642;13.758;2022-08-19T10:32:32;28.80;55.70
15609;DHT22;28705;45.642;13.758;2022-08-19T10:35:01;28.80;57.10
15609;DHT22;28705;45.642;13.758;2022-08-19T10:37:28;28.80;58.20
15609;DHT22;28705;45.642;13.758;2022-08-19T10:39:56;28.70;58.40
15609;DHT22;28705;45.642;13.758;2022-08-19T10:42:23;28.70;59.40
15609;DHT22;28705;45.642;13.758;2022-08-19T10:44:50;28.60;60.40
15609;DHT22;28705;45.642;13.758;2022-08-19T10:47:17;28.60;61.10
15609;DHT22;28705;45.642;13.758;2022-08-19T10:49:44;28.50;60.90
15609;DHT22;28705;45.642;13.758;2022-08-19T10:52:30;28.40;60.30
15609;DHT22;28705;45.642;13.758;2022-08-19T10:54:59;28.30;59.60
15609;DHT22;28705;45.642;13.758;2022-08-19T10:57:44;28.20;58.80
15609;DHT22;28705;45.642;13.758;2022-08-19T11:00:16;28.20;57.90
15609;DHT22;28705;45.642;13.758;2022-08-19T11:02:43;28.20;57.20
15609;DHT22;28705;45.642;13.758;2022-08-19T11:05:11;28.20;56.40
15609;DHT22;28705;45.642;13.758;2022-08-19T11:07:41;28.10;55.20
15609;DHT22;28705;45.642;13.758;2022-08-19T11:10:12;28.10;55.40
15609;DHT22;28705;45.642;13.758;2022-08-19T11:12:43;28.10;55.10
15609;DHT22;28705;45.642;13.758;2022-08-19T11:15:11;28.10;54.60
15609;DHT22;28705;45.642;13.758;2022-08-19T11:17:39;28.10;54.60
15609;DHT22;28705;45.642;13.758;2022-08-19T11:20:09;28.20;54.40
15609;DHT22;28705;45.642;13.758;2022-08-19T11:22:36;28.20;54.40
15609;DHT22;28705;45.642;13.758;2022-08-19T11:25:06;28.30;54.20
15609;DHT22;28705;45.642;13.758;2022-08-19T11:27:33;28.30;54.20
15609;DHT22;28705;45.642;13.758;2022-08-19T11:30:05;28.30;54.30
15609;DHT22;28705;45.642;13.758;2022-08-19T11:32:33;28.40;54.50
15609;DHT22;28705;45.642;13.758;2022-08-19T11:35:00;28.40;54.70
15609;DHT22;28705;45.642;13.758;2022-08-19T11:37:27;28.40;54.80
15609;DHT22;28705;45.642;13.758;2022-08-19T11:40:07;28.40;55.00
15609;DHT22;28705;45.642;13.758;2022-08-19T11:42:35;28.30;55.10
15609;DHT22;28705;45.642;13.758;2022-08-19T11:45:20;28.40;55.30
15609;DHT22;28705;45.642;13.758;2022-08-19T11:47:47;28.40;55.20
15609;DHT22;28705;45.642;13.758;2022-08-19T11:50:14;28.40;55.10
15609;DHT22;28705;45.642;13.758;2022-08-19T11:52:41;28.50;54.80
15609;DHT22;28705;45.642;13.758;2022-08-19T11:55:11;28.50;54.70
15609;DHT22;28705;45.642;13.758;2022-08-19T11:57:39;28.60;54.90
15609;DHT22;28705;45.642;13.758;2022-08-19T12:00:07;28.50;54.90
15609;DHT22;28705;45.642;13.758;2022-08-19T12:02:35;28.60;55.10
15609;DHT22;28705;45.642;13.758;2022-08-19T12:05:03;28.60;55.30
15609;DHT22;28705;45.642;13.758;2022-08-19T12:07:31;28.60;55.40
15609;DHT22;28705;45.642;13.758;2022-08-19T12:09:59;28.50;55.50
15609;DHT22;28705;45.642;13.758;2022-08-19T12:12:27;28.60;55.60
15609;DHT22;28705;45.642;13.758;2022-08-19T12:14:54;28.60;55.80
15609;DHT22;28705;45.642;13.758;2022-08-19T12:17:24;28.60;55.80
15609;DHT22;28705;45.642;13.758;2022-08-19T12:19:52;28.60;56.30
15609;DHT22;28705;45.642;13.758;2022-08-19T12:22:20;28.70;56.90
15609;DHT22;28705;45.642;13.758;2022-08-19T12:24:47;28.90;58.10
15609;DHT22;28705;45.642;13.758;2022-08-19T12:27:16;29.00;59.60
15609;DHT22;28705;45.642;13.758;2022-08-19T12:29:44;29.30;60.00
15609;DHT22;28705;45.642;13.758;2022-08-19T12:32:11;29.40;60.70
15609;DHT22;28705;45.642;13.758;2022-08-19T12:34:38;29.60;60.90
15609;DHT22;28705;45.642;13.758;2022-08-19T12:37:06;29.70;60.20
15609;DHT22;28705;45.642;13.758;2022-08-19T12:39:37;29.70;60.50
15609;DHT22;28705;45.642;13.758;2022-08-19T12:42:05;29.80;61.20
15609;DHT22;28705;45.642;13.758;2022-08-19T12:44:33;29.80;60.10
15609;DHT22;28705;45.642;13.758;2022-08-19T12:47:01;29.90;58.60
15609;DHT22;28705;45.642;13.758;2022-08-19T12:49:30;29.90;57.40
15609;DHT22;28705;45.642;13.758;2022-08-19T12:51:59;29.90;56.30
15609;DHT22;28705;45.642;13.758;2022-08-19T12:54:26;29.80;55.90
15609;DHT22;28705;45.642;13.758;2022-08-19T12:56:53;29.80;55.30
15609;DHT22;28705;45.642;13.758;2022-08-19T12:59:21;29.80;55.20
15609;DHT22;28705;45.642;13.758;2022-08-19T13:01:48;29.80;55.40
15609;DHT22;28705;45.642;13.758;2022-08-19T13:04:16;29.80;55.60
15609;DHT22;28705;45.642;13.758;2022-08-19T13:06:43;29.80;56.00
15609;DHT22;28705;45.642;13.758;2022-08-19T13:09:10;29.80;56.90
15609;DHT22;28705;45.642;13.758;2022-08-19T13:11:37;29.80;56.80
15609;DHT22;28705;45.642;13.758;2022-08-19T13:14:04;29.90;56.40
15609;DHT22;28705;45.642;13.758;2022-08-19T13:16:31;29.90;55.70
15609;DHT22;28705;45.642;13.758;2022-08-19T13:18:58;29.90;56.50
15609;DHT22;28705;45.642;13.758;2022-08-19T13:21:29;29.90;56.80
15609;DHT22;28705;45.642;13.758;2022-08-19T13:23:57;30.00;57.50
15609;DHT22;28705;45.642;13.758;2022-08-19T13:26:24;30.00;57.60
15609;DHT22;28705;45.642;13.758;2022-08-19T13:28:51;30.00;56.70
15609;DHT22;28705;45.642;13.758;2022-08-19T13:31:40;29.90;55.30
15609;DHT22;28705;45.642;13.758;2022-08-19T13:34:28;29.90;54.80
15609;DHT22;28705;45.642;13.758;2022-08-19T13:36:57;29.80;54.00
15609;DHT22;28705;45.642;13.758;2022-08-19T13:39:24;29.80;53.90
15609;DHT22;28705;45.642;13.758;2022-08-19T13:41:52;29.80;54.10
15609;DHT22;28705;45.642;13.758;2022-08-19T13:44:19;29.80;54.70
15609;DHT22;28705;45.642;13.758;2022-08-19T13:46:47;29.70;54.60
15609;DHT22;28705;45.642;13.758;2022-08-19T13:49:16;29.80;54.70
15609;DHT22;28705;45.642;13.758;2022-08-19T13:51:44;29.80;54.70
15609;DHT22;28705;45.642;13.758;2022-08-19T13:54:13;29.80;55.10
15609;DHT22;28705;45.642;13.758;2022-08-19T13:56:41;29.80;55.60
15609;DHT22;28705;45.642;13.758;2022-08-19T13:59:09;29.80;56.10
15609;DHT22;28705;45.642;13.758;2022-08-19T14:01:36;29.80;56.90
15609;DHT22;28705;45.642;13.758;2022-08-19T14:04:04;29.70;57.30
15609;DHT22;28705;45.642;13.758;2022-08-19T14:06:31;29.70;57.20
15609;DHT22;28705;45.642;13.758;2022-08-19T14:08:59;29.70;57.50
15609;DHT22;28705;45.642;13.758;2022-08-19T14:11:29;29.70;57.50
15609;DHT22;28705;45.642;13.758;2022-08-19T14:13:56;29.70;57.40
15609;DHT22;28705;45.642;13.758;2022-08-19T14:16:23;29.70;57.40
15609;DHT22;28705;45.642;13.758;2022-08-19T14:18:50;29.70;57.40
15609;DHT22;28705;45.642;13.758;2022-08-19T14:21:21;29.70;58.10
15609;DHT22;28705;45.642;13.758;2022-08-19T14:23:49;29.70;58.40
15609;DHT22;28705;45.642;13.758;2022-08-19T14:26:18;29.70;58.70
15609;DHT22;28705;45.642;13.758;2022-08-19T14:28:46;29.70;58.80
15609;DHT22;28705;45.642;13.758;2022-08-19T14:31:16;29.70;58.70
15609;DHT22;28705;45.642;13.758;2022-08-19T14:33:45;29.60;58.80
15609;DHT22;28705;45.642;13.758;2022-08-19T14:36:12;29.60;58.80
15609;DHT22;28705;45.642;13.758;2022-08-19T14:38:40;29.60;59.00
15609;DHT22;28705;45.642;13.758;2022-08-19T14:41:09;29.60;58.90
15609;DHT22;28705;45.642;13.758;2022-08-19T14:43:36;29.60;58.90
15609;DHT22;28705;45.642;13.758;2022-08-19T14:46:05;29.60;58.90
15609;DHT22;28705;45.642;13.758;2022-08-19T14:48:33;29.60;58.80
15609;DHT22;28705;45.642;13.758;2022-08-19T14:51:02;29.60;58.80
15609;DHT22;28705;45.642;13.758;2022-08-19T14:53:29;29.50;58.70
15609;DHT22;28705;45.642;13.758;2022-08-19T14:55:56;29.60;58.80
15609;DHT22;28705;45.642;13.758;2022-08-19T14:58:23;29.50;58.70
15609;DHT22;28705;45.642;13.758;2022-08-19T15:00:49;29.50;58.70
15609;DHT22;28705;45.642;13.758;2022-08-19T15:03:18;29.50;59.00
15609;DHT22;28705;45.642;13.758;2022-08-19T15:05:45;29.50;59.40
15609;DHT22;28705;45.642;13.758;2022-08-19T15:08:12;29.50;59.50
15609;DHT22;28705;45.642;13.758;2022-08-19T15:10:39;29.50;59.60
15609;DHT22;28705;45.642;13.758;2022-08-19T15:13:06;29.40;59.50
15609;DHT22;28705;45.642;13.758;2022-08-19T15:15:33;29.40;59.70
15609;DHT22;28705;45.642;13.758;2022-08-19T15:18:01;29.40;59.60
15609;DHT22;28705;45.642;13.758;2022-08-19T15:20:31;29.40;59.80
15609;DHT22;28705;45.642;13.758;2022-08-19T15:22:58;29.30;59.90
15609;DHT22;28705;45.642;13.758;2022-08-19T15:25:26;29.30;60.20
15609;DHT22;28705;45.642;13.758;2022-08-19T15:27:54;29.30;60.40